logo
Rechercher aéroport 
image banner adimage banner adimage banner ad
image banner ad

KMAE - Madera Muni

Situé à Madera, United States

ICAO - MAE, IATA - MAE

Données fournies par Airmate  

Information générale

Coordonnées: N36°59'19" W120°6'45"
Élévation : 255 feet MSL.
Variation magnétique : 13° East
Voir autres Aéroports à California

Données opérationnelles

Special qualification required
Heure actuelle UTC:
Heure actuelle locale:
Météo
METAR: KMAE 011753Z AUTO VRB03KT 10SM CLR 27/09 A2981 RMK AO2 SLP092 T02720094 10272 20122 50001
Voir NOTAMs / SUP AIP / TFR affectant cet aéroport [VIEW]
Fréquences de communication: [VIEW]

Pistes:

Identifiant RWYQFULongueur (ft)Largeur (ft)SurfaceLDA (ft)
12135°5545150ASPH
30315°5545150ASPH

Coordonnées de l'aéroport

Adresse: Madera United States

Vue satellite de KMAE